Nashville, TN

6:39 AM CST on November 15, 2018 (GMT -0600)
USN at Edgehill (Midtown) | | Change Station

Elev 531 ft 36.14 °N, 86.80 °W | Updated 31 seconds ago

Overcast
Overcast
33.4 °F
Feels Like 33 °F
N
0.7
Wind Variable Wind from WNW
Gusts 1.1 mph

Today
High -- | Low -- °F
--% Chance of Precip.
Yesterday
High -- | Low -- °F
Precip. -- in
Pressure 30.15 in
Visibility 10.0 miles
Clouds Few 800 ft
Mostly Cloudy 1800 ft
Overcast 2300 ft
Windchill 33 °F
Dew Point 30 °F
Humidity 88%
Rainfall 0.00 in
Snow Depth Not available.
6:23 AM 4:39 PM
Waxing Crescent, 49% visible
METAR KBNA 151153Z 22006KT 10SM FEW008 BKN018 OVC023 01/M02 A3014 RMK AO2 SLP210 60000 70097 T00111017 10028 20011 53002
Pressure 30.15 in
Visibility 10.0 miles
Clouds Few 800 ft
Mostly Cloudy 1800 ft
Overcast 2300 ft
Windchill 33 °F
Dew Point 30 °F
Humidity 88%
Rainfall 0.00 in
Snow Depth Not available.
6:23 AM 4:39 PM
Waxing Crescent, 49% visible
METAR KBNA 151153Z 22006KT 10SM FEW008 BKN018 OVC023 01/M02 A3014 RMK AO2 SLP210 60000 70097 T00111017 10028 20011 53002

Get Severe Weather Alerts

Thanks for signing up!

Be on the lookout for a verification email in your inbox.

You'll start receiving the daily forecast at 6 AM.

×

10-Day Weather Forecast

Almanac

Astronomy

Nov. 15, 2018 Rise Set
Actual Time
Civil Twilight
Nautical Twilight
Astronomical Twilight
Moon
Length of Visible Light
Length of Day
Tomorrow will be .
, % of the Moon is Illuminated

Today's Extremes

State Highs State Lows

Community

WunderPhotos

Category 6

Welcome to Category 6. This is the collective home for Weather Underground's featured writeups by Dr. Jeff Masters (right), Bob Henson (left), Chris Burt, and other regular contributors.

Nearby

Air Quality

  Air Quality AQ Index Pollutant
Not available.

Snow Depth

Station Depth Elevation

Earthquake Activity

City Distance Mag. Time & Date
Minimum magnitude displayed is 2.5.

Coastal Water Temperatures

Place Temperature

Stations

Nearby Weather Stations

Station Location Temp. Windchill Dew Point Humidity Wind Precip. Elev Updated Type
                   

Watches & Warnings

There are currently no watches in effect.